sensor_id;sensor_type;location;lat;lon;timestamp;pressure;altitude;pressure_sealevel;temperature;humidity
25650;BME280;13505;45.196;5.696;2022-10-31T05:01:46;99683.72;;;13.67;94.38
25650;BME280;13505;45.196;5.696;2022-10-31T05:06:37;99677.03;;;13.60;94.12
25650;BME280;13505;45.196;5.696;2022-10-31T05:11:27;99679.13;;;13.53;95.27
25650;BME280;13505;45.196;5.696;2022-10-31T05:16:17;99690.03;;;13.47;95.33
25650;BME280;13505;45.196;5.696;2022-10-31T05:21:08;99684.38;;;13.35;96.56
25650;BME280;13505;45.196;5.696;2022-10-31T05:25:58;99688.81;;;13.35;97.67
25650;BME280;13505;45.196;5.696;2022-10-31T05:30:49;99683.53;;;13.35;95.56
25650;BME280;13505;45.196;5.696;2022-10-31T05:35:39;99696.69;;;13.36;96.04
25650;BME280;13505;45.196;5.696;2022-10-31T05:40:29;99697.88;;;13.31;95.74
25650;BME280;13505;45.196;5.696;2022-10-31T05:45:21;99703.38;;;13.26;97.36
25650;BME280;13505;45.196;5.696;2022-10-31T05:50:11;99694.66;;;13.24;96.39
25650;BME280;13505;45.196;5.696;2022-10-31T05:55:02;99685.69;;;13.26;98.24
25650;BME280;13505;45.196;5.696;2022-10-31T05:59:52;99689.13;;;13.29;96.81
25650;BME280;13505;45.196;5.696;2022-10-31T06:04:43;99692.06;;;13.22;96.66
25650;BME280;13505;45.196;5.696;2022-10-31T06:09:33;99691.03;;;13.07;99.23
25650;BME280;13505;45.196;5.696;2022-10-31T06:14:23;99694.09;;;13.17;98.67
25650;BME280;13505;45.196;5.696;2022-10-31T06:19:13;99689.59;;;13.19;100.00
25650;BME280;13505;45.196;5.696;2022-10-31T06:24:04;99696.31;;;13.07;100.00
25650;BME280;13505;45.196;5.696;2022-10-31T06:28:54;99703.44;;;13.24;100.00
25650;BME280;13505;45.196;5.696;2022-10-31T06:33:45;99712.94;;;13.11;100.00
25650;BME280;13505;45.196;5.696;2022-10-31T06:38:35;99706.03;;;13.26;100.00
25650;BME280;13505;45.196;5.696;2022-10-31T06:43:25;99702.59;;;13.24;99.97
25650;BME280;13505;45.196;5.696;2022-10-31T06:48:16;99696.88;;;13.14;100.00
25650;BME280;13505;45.196;5.696;2022-10-31T06:53:06;99690.75;;;12.94;100.00
25650;BME280;13505;45.196;5.696;2022-10-31T06:57:58;99688.25;;;12.91;100.00
25650;BME280;13505;45.196;5.696;2022-10-31T07:03:04;99683.53;;;12.98;100.00
25650;BME280;13505;45.196;5.696;2022-10-31T07:08:05;99684.81;;;12.89;100.00
25650;BME280;13505;45.196;5.696;2022-10-31T07:12:58;99669.28;;;13.01;100.00
25650;BME280;13505;45.196;5.696;2022-10-31T07:17:48;99671.88;;;13.20;100.00
25650;BME280;13505;45.196;5.696;2022-10-31T07:22:39;99669.31;;;13.18;100.00
25650;BME280;13505;45.196;5.696;2022-10-31T07:27:35;99672.75;;;13.20;100.00
25650;BME280;13505;45.196;5.696;2022-10-31T07:32:26;99678.19;;;13.54;100.00
25650;BME280;13505;45.196;5.696;2022-10-31T07:37:16;99678.88;;;13.58;99.18
25650;BME280;13505;45.196;5.696;2022-10-31T07:42:07;99676.16;;;13.94;97.78
25650;BME280;13505;45.196;5.696;2022-10-31T07:46:57;99676.00;;;14.31;96.99
25650;BME280;13505;45.196;5.696;2022-10-31T07:51:47;99670.56;;;14.50;95.39
25650;BME280;13505;45.196;5.696;2022-10-31T07:56:38;99668.53;;;14.72;93.41
25650;BME280;13505;45.196;5.696;2022-10-31T08:01:28;99664.69;;;14.93;91.78
25650;BME280;13505;45.196;5.696;2022-10-31T08:06:18;99665.59;;;15.25;89.65
25650;BME280;13505;45.196;5.696;2022-10-31T08:11:08;99678.69;;;15.44;88.87
25650;BME280;13505;45.196;5.696;2022-10-31T08:15:59;99674.88;;;15.64;87.69
25650;BME280;13505;45.196;5.696;2022-10-31T08:20:53;99677.66;;;15.46;86.74
25650;BME280;13505;45.196;5.696;2022-10-31T08:25:44;99664.78;;;15.69;87.25
25650;BME280;13505;45.196;5.696;2022-10-31T08:30:37;99661.03;;;15.73;86.24
25650;BME280;13505;45.196;5.696;2022-10-31T08:35:28;99658.53;;;16.01;85.68
25650;BME280;13505;45.196;5.696;2022-10-31T08:40:18;99654.34;;;16.26;84.28
25650;BME280;13505;45.196;5.696;2022-10-31T08:45:09;99651.97;;;16.50;82.77
25650;BME280;13505;45.196;5.696;2022-10-31T08:49:59;99650.66;;;16.85;82.33
25650;BME280;13505;45.196;5.696;2022-10-31T08:54:50;99647.97;;;17.27;81.08
25650;BME280;13505;45.196;5.696;2022-10-31T08:59:40;99648.88;;;17.53;77.93
25650;BME280;13505;45.196;5.696;2022-10-31T09:04:30;99641.66;;;17.68;77.66
25650;BME280;13505;45.196;5.696;2022-10-31T09:09:20;99642.31;;;17.72;77.21
25650;BME280;13505;45.196;5.696;2022-10-31T09:14:11;99635.06;;;17.74;77.35
25650;BME280;13505;45.196;5.696;2022-10-31T09:19:01;99626.84;;;17.64;75.53
25650;BME280;13505;45.196;5.696;2022-10-31T09:23:51;99634.22;;;17.99;74.81
25650;BME280;13505;45.196;5.696;2022-10-31T09:28:43;99621.31;;;18.19;73.70
25650;BME280;13505;45.196;5.696;2022-10-31T09:33:34;99626.16;;;18.51;72.73
25650;BME280;13505;45.196;5.696;2022-10-31T09:38:25;99616.34;;;18.76;71.74
25650;BME280;13505;45.196;5.696;2022-10-31T09:58:40;99595.31;;;19.56;66.42
25650;BME280;13505;45.196;5.696;2022-10-31T10:03:54;99599.13;;;19.76;67.86
25650;BME280;13505;45.196;5.696;2022-10-31T10:08:45;99598.00;;;19.56;67.34
25650;BME280;13505;45.196;5.696;2022-10-31T10:28:42;99581.09;;;18.95;67.65
25650;BME280;13505;45.196;5.696;2022-10-31T10:33:38;99573.44;;;18.91;68.36
25650;BME280;13505;45.196;5.696;2022-10-31T10:38:42;99573.38;;;18.79;67.85
25650;BME280;13505;45.196;5.696;2022-10-31T10:43:38;99574.91;;;19.55;66.11
25650;BME280;13505;45.196;5.696;2022-10-31T10:54:39;99571.59;;;19.51;66.90
25650;BME280;13505;45.196;5.696;2022-10-31T10:59:13;99572.00;;;19.70;62.81
25650;BME280;13505;45.196;5.696;2022-10-31T11:04:25;99557.56;;;20.06;62.01
25650;BME280;13505;45.196;5.696;2022-10-31T11:09:16;99560.84;;;20.66;62.20
25650;BME280;13505;45.196;5.696;2022-10-31T11:14:12;99546.69;;;20.86;62.12
25650;BME280;13505;45.196;5.696;2022-10-31T11:19:27;99542.78;;;21.12;62.35
25650;BME280;13505;45.196;5.696;2022-10-31T11:24:20;99536.41;;;21.24;60.92
25650;BME280;13505;45.196;5.696;2022-10-31T11:29:25;99517.53;;;20.60;59.54
25650;BME280;13505;45.196;5.696;2022-10-31T11:34:23;99506.00;;;20.37;60.82
25650;BME280;13505;45.196;5.696;2022-10-31T11:39:23;99499.84;;;20.25;61.30
25650;BME280;13505;45.196;5.696;2022-10-31T11:44:23;99488.50;;;20.66;62.40
25650;BME280;13505;45.196;5.696;2022-10-31T11:49:20;99474.81;;;20.47;62.61
25650;BME280;13505;45.196;5.696;2022-10-31T11:54:31;99463.88;;;20.72;59.73
25650;BME280;13505;45.196;5.696;2022-10-31T11:59:29;99459.94;;;20.87;61.28
25650;BME280;13505;45.196;5.696;2022-10-31T12:04:49;99447.00;;;20.60;60.67
25650;BME280;13505;45.196;5.696;2022-10-31T12:09:41;99428.44;;;20.47;60.04
25650;BME280;13505;45.196;5.696;2022-10-31T12:15:04;99423.25;;;20.67;60.14
25650;BME280;13505;45.196;5.696;2022-10-31T12:25:46;99413.41;;;20.88;63.80
25650;BME280;13505;45.196;5.696;2022-10-31T12:46:25;99367.75;;;21.82;59.72
25650;BME280;13505;45.196;5.696;2022-10-31T13:06:59;99341.34;;;23.13;54.09
25650;BME280;13505;45.196;5.696;2022-10-31T13:11:55;99320.59;;;23.34;54.76
25650;BME280;13505;45.196;5.696;2022-10-31T13:16:47;99328.97;;;23.31;54.12
25650;BME280;13505;45.196;5.696;2022-10-31T13:21:42;99326.03;;;23.14;54.64
25650;BME280;13505;45.196;5.696;2022-10-31T13:26:48;99320.22;;;23.19;54.74
25650;BME280;13505;45.196;5.696;2022-10-31T13:31:40;99303.78;;;23.22;53.26
25650;BME280;13505;45.196;5.696;2022-10-31T13:36:43;99309.69;;;22.97;53.96
25650;BME280;13505;45.196;5.696;2022-10-31T13:41:48;99296.13;;;22.89;56.24
25650;BME280;13505;45.196;5.696;2022-10-31T13:46:41;99289.88;;;22.98;55.33
25650;BME280;13505;45.196;5.696;2022-10-31T13:51:34;99303.25;;;23.18;54.27
25650;BME280;13505;45.196;5.696;2022-10-31T13:56:33;99296.25;;;23.35;54.12
25650;BME280;13505;45.196;5.696;2022-10-31T14:01:24;99287.41;;;23.43;53.37
25650;BME280;13505;45.196;5.696;2022-10-31T14:06:15;99275.41;;;23.37;54.59
25650;BME280;13505;45.196;5.696;2022-10-31T14:11:08;99296.69;;;23.31;53.81
25650;BME280;13505;45.196;5.696;2022-10-31T14:16:17;99278.56;;;23.23;54.47
25650;BME280;13505;45.196;5.696;2022-10-31T14:26:18;99288.50;;;22.94;55.81
25650;BME280;13505;45.196;5.696;2022-10-31T14:52:37;99275.63;;;21.91;60.47
25650;BME280;13505;45.196;5.696;2022-10-31T14:57:31;99277.63;;;21.99;60.61
25650;BME280;13505;45.196;5.696;2022-10-31T15:02:26;99279.16;;;21.82;60.34
25650;BME280;13505;45.196;5.696;2022-10-31T15:07:26;99266.13;;;21.57;61.79
25650;BME280;13505;45.196;5.696;2022-10-31T15:12:34;99276.97;;;21.36;62.15
25650;BME280;13505;45.196;5.696;2022-10-31T15:17:28;99274.63;;;21.12;64.21
25650;BME280;13505;45.196;5.696;2022-10-31T15:22:20;99278.50;;;20.88;65.53
25650;BME280;13505;45.196;5.696;2022-10-31T15:27:15;99268.72;;;20.77;64.85
25650;BME280;13505;45.196;5.696;2022-10-31T15:32:23;99252.66;;;20.56;65.43
25650;BME280;13505;45.196;5.696;2022-10-31T15:37:19;99250.56;;;20.38;67.98
25650;BME280;13505;45.196;5.696;2022-10-31T15:47:18;99244.53;;;20.15;69.37
25650;BME280;13505;45.196;5.696;2022-10-31T15:57:10;99248.25;;;20.02;67.74
25650;BME280;13505;45.196;5.696;2022-10-31T16:02:07;99251.91;;;19.90;68.35
25650;BME280;13505;45.196;5.696;2022-10-31T16:07:12;99249.00;;;19.60;70.42
25650;BME280;13505;45.196;5.696;2022-10-31T16:12:03;99255.41;;;19.25;71.82
25650;BME280;13505;45.196;5.696;2022-10-31T16:16:56;99243.50;;;19.18;72.03
25650;BME280;13505;45.196;5.696;2022-10-31T16:21:51;99258.25;;;19.01;72.99
25650;BME280;13505;45.196;5.696;2022-10-31T16:26:51;99255.28;;;18.81;74.74
25650;BME280;13505;45.196;5.696;2022-10-31T16:31:42;99256.88;;;18.72;74.89
25650;BME280;13505;45.196;5.696;2022-10-31T16:36:34;99259.41;;;18.51;74.82
25650;BME280;13505;45.196;5.696;2022-10-31T16:41:28;99280.47;;;18.31;76.50
25650;BME280;13505;45.196;5.696;2022-10-31T16:46:22;99287.34;;;18.11;77.40
25650;BME280;13505;45.196;5.696;2022-10-31T16:51:13;99281.81;;;17.90;80.14
25650;BME280;13505;45.196;5.696;2022-10-31T16:56:04;99294.84;;;17.81;80.24
25650;BME280;13505;45.196;5.696;2022-10-31T17:00:55;99302.84;;;17.81;80.02
25650;BME280;13505;45.196;5.696;2022-10-31T17:05:45;99311.88;;;17.67;80.17
25650;BME280;13505;45.196;5.696;2022-10-31T17:10:36;99314.47;;;17.56;82.00
25650;BME280;13505;45.196;5.696;2022-10-31T17:15:28;99317.84;;;17.34;82.47
25650;BME280;13505;45.196;5.696;2022-10-31T17:20:27;99320.03;;;17.53;81.14
25650;BME280;13505;45.196;5.696;2022-10-31T17:25:20;99322.97;;;17.37;82.41
25650;BME280;13505;45.196;5.696;2022-10-31T17:30:12;99337.72;;;17.16;82.81
25650;BME280;13505;45.196;5.696;2022-10-31T17:35:03;99335.91;;;17.17;82.14
25650;BME280;13505;45.196;5.696;2022-10-31T17:39:53;99347.41;;;17.18;81.51
25650;BME280;13505;45.196;5.696;2022-10-31T17:44:44;99346.88;;;17.12;82.11
25650;BME280;13505;45.196;5.696;2022-10-31T17:49:34;99331.22;;;17.08;83.20
25650;BME280;13505;45.196;5.696;2022-10-31T17:54:24;99351.25;;;17.00;81.97
25650;BME280;13505;45.196;5.696;2022-10-31T17:59:15;99349.63;;;16.98;82.01
25650;BME280;13505;45.196;5.696;2022-10-31T18:04:05;99360.00;;;17.02;80.32
25650;BME280;13505;45.196;5.696;2022-10-31T18:08:55;99364.88;;;16.96;80.67
25650;BME280;13505;45.196;5.696;2022-10-31T18:13:54;99362.75;;;16.88;82.19
25650;BME280;13505;45.196;5.696;2022-10-31T18:18:50;99353.91;;;16.74;83.02
25650;BME280;13505;45.196;5.696;2022-10-31T18:23:41;99355.69;;;16.61;84.06
25650;BME280;13505;45.196;5.696;2022-10-31T18:28:31;99356.03;;;16.69;83.29
25650;BME280;13505;45.196;5.696;2022-10-31T18:33:22;99350.03;;;16.66;84.98
25650;BME280;13505;45.196;5.696;2022-10-31T18:38:12;99355.19;;;16.69;84.12
25650;BME280;13505;45.196;5.696;2022-10-31T18:43:03;99362.84;;;16.60;82.96
25650;BME280;13505;45.196;5.696;2022-10-31T18:47:53;99358.88;;;16.53;84.24
25650;BME280;13505;45.196;5.696;2022-10-31T18:52:43;99369.19;;;16.45;83.40
25650;BME280;13505;45.196;5.696;2022-10-31T18:57:34;99371.63;;;16.35;83.45
25650;BME280;13505;45.196;5.696;2022-10-31T19:02:24;99362.75;;;16.22;83.47
25650;BME280;13505;45.196;5.696;2022-10-31T19:07:14;99359.25;;;15.94;85.12
25650;BME280;13505;45.196;5.696;2022-10-31T19:12:05;99356.28;;;15.98;85.12
25650;BME280;13505;45.196;5.696;2022-10-31T19:16:55;99364.34;;;16.24;83.52
25650;BME280;13505;45.196;5.696;2022-10-31T19:21:46;99363.59;;;16.22;83.60
25650;BME280;13505;45.196;5.696;2022-10-31T19:26:36;99358.78;;;15.87;85.82
25650;BME280;13505;45.196;5.696;2022-10-31T19:31:27;99370.69;;;16.09;83.99
25650;BME280;13505;45.196;5.696;2022-10-31T19:36:18;99357.47;;;15.94;86.21
25650;BME280;13505;45.196;5.696;2022-10-31T19:41:13;99348.38;;;16.11;84.63
25650;BME280;13505;45.196;5.696;2022-10-31T19:46:05;99349.53;;;16.60;73.78
25650;BME280;13505;45.196;5.696;2022-10-31T19:51:00;99356.84;;;16.44;77.56
25650;BME280;13505;45.196;5.696;2022-10-31T19:55:51;99342.94;;;16.66;70.46
25650;BME280;13505;45.196;5.696;2022-10-31T20:00:41;99349.50;;;17.38;63.71
25650;BME280;13505;45.196;5.696;2022-10-31T20:05:32;99348.22;;;17.44;59.11
25650;BME280;13505;45.196;5.696;2022-10-31T20:10:22;99366.69;;;18.09;nan
25650;BME280;13505;45.196;5.696;2022-10-31T20:15:13;99361.44;;;18.79;47.33
25650;BME280;13505;45.196;5.696;2022-10-31T20:20:04;99363.06;;;19.50;42.13
25650;BME280;13505;45.196;5.696;2022-10-31T20:24:57;99367.84;;;20.02;40.14
25650;BME280;13505;45.196;5.696;2022-10-31T20:29:48;99366.50;;;20.07;39.43
25650;BME280;13505;45.196;5.696;2022-10-31T20:34:38;99373.22;;;20.34;38.39
25650;BME280;13505;45.196;5.696;2022-10-31T20:39:28;99371.53;;;20.55;38.03
25650;BME280;13505;45.196;5.696;2022-10-31T20:44:19;99377.31;;;20.60;36.93
25650;BME280;13505;45.196;5.696;2022-10-31T20:49:09;99378.16;;;20.39;38.69
25650;BME280;13505;45.196;5.696;2022-10-31T20:53:59;99382.94;;;20.57;37.31
25650;BME280;13505;45.196;5.696;2022-10-31T20:58:50;99371.25;;;20.79;36.09
25650;BME280;13505;45.196;5.696;2022-10-31T21:03:42;99387.56;;;20.87;34.80
25650;BME280;13505;45.196;5.696;2022-10-31T21:08:32;99382.00;;;21.31;33.76
25650;BME280;13505;45.196;5.696;2022-10-31T21:13:23;99370.84;;;21.36;33.73
25650;BME280;13505;45.196;5.696;2022-10-31T21:18:14;99374.94;;;21.30;33.83
25650;BME280;13505;45.196;5.696;2022-10-31T21:23:04;99385.63;;;21.21;33.88
25650;BME280;13505;45.196;5.696;2022-10-31T21:27:54;99389.03;;;21.23;34.15
25650;BME280;13505;45.196;5.696;2022-10-31T21:32:45;99397.28;;;21.10;34.09
25650;BME280;13505;45.196;5.696;2022-10-31T21:37:35;99390.44;;;21.27;33.87
25650;BME280;13505;45.196;5.696;2022-10-31T21:42:25;99385.88;;;21.17;34.13
25650;BME280;13505;45.196;5.696;2022-10-31T21:47:16;99382.75;;;21.12;33.98
25650;BME280;13505;45.196;5.696;2022-10-31T21:52:07;99382.78;;;21.22;33.58
25650;BME280;13505;45.196;5.696;2022-10-31T21:56:59;99379.88;;;21.04;33.27
25650;BME280;13505;45.196;5.696;2022-10-31T22:01:51;99379.44;;;20.99;33.64
25650;BME280;13505;45.196;5.696;2022-10-31T22:06:41;99387.13;;;21.13;33.16
25650;BME280;13505;45.196;5.696;2022-10-31T22:11:32;99392.19;;;21.07;32.94
25650;BME280;13505;45.196;5.696;2022-10-31T22:16:24;99387.53;;;21.40;32.31
25650;BME280;13505;45.196;5.696;2022-10-31T22:21:17;99376.63;;;21.31;32.28
25650;BME280;13505;45.196;5.696;2022-10-31T22:26:12;99388.84;;;21.14;33.36
25650;BME280;13505;45.196;5.696;2022-10-31T22:31:04;99382.84;;;21.32;32.76
25650;BME280;13505;45.196;5.696;2022-10-31T22:35:55;99389.25;;;21.51;32.65
25650;BME280;13505;45.196;5.696;2022-10-31T22:40:46;99388.13;;;21.43;32.85
25650;BME280;13505;45.196;5.696;2022-10-31T22:45:36;99408.19;;;21.18;33.97
25650;BME280;13505;45.196;5.696;2022-10-31T22:50:26;99409.84;;;21.09;34.13
25650;BME280;13505;45.196;5.696;2022-10-31T22:55:16;99408.78;;;21.00;34.41
